Pierre Regional Airport Pierre US
ICAO: KPIR
IATA: PIR
Category: Medium
Scheduled Services: Yes

Elevation: 1744 ft
TransAlt. 18000 ft.

Airport Communications:
ASOS:119.025
MINNEAPOLIS CNTR:125.1
CTAF:122.7
HURON RDO:122.2
UNICOM:122.95

KPIR Zoom In..

If you have problems with the map follow the link
https://www.worldairports.se/pages/airport.php?
ICAO=KPIR

Runways:

(A) RW 07 length 6881 ft width 150 ft
---- / hdg 69

(B) RW 13 length 6900 ft width 100 ft
---- / hdg 133

(C) RW 25 length 6881 ft width 150 ft
---- / hdg 249

(D) RW 31 length 6900 ft width 100 ft
ILS 111.90 / hdg 313

Location; KPIR
Day. 14 / Time. 04.00 Zulu
* Altimeter: 30.04
* Temperature: -09° c. -15.8°f.
* Wind from: 330° Speed 04 kn.
Dewpoint: -12° c.
Visibility: 10 Statute Miles.
Clouds: Scattered 2100 ft.
Clouds: Overcast 5000 ft.

KPIR 140400Z AUTO 33004KT 10SM SCT021 OVC050 M09/M12 A3004 RMK AO2 T10941122


Wind From 330°
Speed 04 kn.

 
 
jpsmedia worldairports.se 2019   terms of use